sensor_id;sensor_type;location;lat;lon;timestamp;pressure;altitude;pressure_sealevel;temperature;humidity
77795;BME280;66985;45.778;3.090;2023-03-01T00:00:51;97554.24;;;18.90;13.04
77795;BME280;66985;45.778;3.090;2023-03-01T00:03:16;97557.36;;;18.27;13.17
77795;BME280;66985;45.778;3.090;2023-03-01T00:05:44;97556.40;;;18.25;13.27
77795;BME280;66985;45.778;3.090;2023-03-01T00:08:07;97553.51;;;18.14;13.25
77795;BME280;66985;45.778;3.090;2023-03-01T00:10:32;97553.66;;;18.00;13.37
77795;BME280;66985;45.778;3.090;2023-03-01T00:12:58;97554.65;;;18.04;13.25
77795;BME280;66985;45.778;3.090;2023-03-01T00:15:24;97557.14;;;18.16;13.22
77795;BME280;66985;45.778;3.090;2023-03-01T00:17:48;97555.72;;;18.27;13.04
77795;BME280;66985;45.778;3.090;2023-03-01T00:20:14;97554.49;;;17.77;13.31
77795;BME280;66985;45.778;3.090;2023-03-01T00:22:39;97557.21;;;17.69;13.29
77795;BME280;66985;45.778;3.090;2023-03-01T00:25:06;97553.81;;;18.54;12.92
77795;BME280;66985;45.778;3.090;2023-03-01T00:27:31;97555.21;;;18.51;12.84
77795;BME280;66985;45.778;3.090;2023-03-01T00:29:56;97551.46;;;17.85;13.30
77795;BME280;66985;45.778;3.090;2023-03-01T00:32:22;97554.49;;;17.56;13.32
77795;BME280;66985;45.778;3.090;2023-03-01T00:34:48;97550.64;;;18.01;13.28
77795;BME280;66985;45.778;3.090;2023-03-01T00:37:13;97551.47;;;17.76;13.35
77795;BME280;66985;45.778;3.090;2023-03-01T00:39:38;97549.67;;;17.93;13.19
77795;BME280;66985;45.778;3.090;2023-03-01T00:42:03;97547.88;;;18.08;13.22
77795;BME280;66985;45.778;3.090;2023-03-01T00:44:29;97550.29;;;18.56;13.02
77795;BME280;66985;45.778;3.090;2023-03-01T00:46:54;97547.42;;;18.18;13.08
77795;BME280;66985;45.778;3.090;2023-03-01T00:49:20;97543.62;;;17.85;13.14
77795;BME280;66985;45.778;3.090;2023-03-01T00:51:45;97542.88;;;17.81;13.19
77795;BME280;66985;45.778;3.090;2023-03-01T00:54:11;97549.01;;;17.59;13.30
77795;BME280;66985;45.778;3.090;2023-03-01T00:56:36;97548.34;;;17.89;13.27
77795;BME280;66985;45.778;3.090;2023-03-01T00:59:02;97552.40;;;18.14;13.10
77795;BME280;66985;45.778;3.090;2023-03-01T01:01:28;97556.19;;;17.64;13.30
77795;BME280;66985;45.778;3.090;2023-03-01T01:03:54;97552.90;;;18.21;12.99
77795;BME280;66985;45.778;3.090;2023-03-01T01:06:20;97548.83;;;17.79;13.26
77795;BME280;66985;45.778;3.090;2023-03-01T01:08:44;97548.62;;;17.22;13.47
77795;BME280;66985;45.778;3.090;2023-03-01T01:11:09;97546.46;;;17.70;13.27
77795;BME280;66985;45.778;3.090;2023-03-01T01:13:34;97547.51;;;17.95;13.23
77795;BME280;66985;45.778;3.090;2023-03-01T01:16:01;97544.78;;;17.64;13.18
77795;BME280;66985;45.778;3.090;2023-03-01T01:18:24;97544.07;;;18.03;13.07
77795;BME280;66985;45.778;3.090;2023-03-01T01:20:50;97542.63;;;18.10;13.01
77795;BME280;66985;45.778;3.090;2023-03-01T01:23:15;97536.74;;;17.70;13.33
77795;BME280;66985;45.778;3.090;2023-03-01T01:25:40;97537.06;;;17.60;13.18
77795;BME280;66985;45.778;3.090;2023-03-01T01:28:05;97536.15;;;17.67;13.29
77795;BME280;66985;45.778;3.090;2023-03-01T01:30:31;97531.07;;;17.98;13.09
77795;BME280;66985;45.778;3.090;2023-03-01T01:32:56;97531.25;;;17.61;13.21
77795;BME280;66985;45.778;3.090;2023-03-01T01:35:21;97530.00;;;18.07;13.08
77795;BME280;66985;45.778;3.090;2023-03-01T01:37:46;97531.13;;;17.56;13.30
77795;BME280;66985;45.778;3.090;2023-03-01T01:40:13;97531.25;;;17.77;13.23
77795;BME280;66985;45.778;3.090;2023-03-01T01:42:37;97529.72;;;17.94;13.14
77795;BME280;66985;45.778;3.090;2023-03-01T01:45:35;97523.88;;;18.04;13.10
77795;BME280;66985;45.778;3.090;2023-03-01T01:47:28;97519.11;;;17.81;13.09
77795;BME280;66985;45.778;3.090;2023-03-01T01:49:54;97514.24;;;17.90;13.05
77795;BME280;66985;45.778;3.090;2023-03-01T01:52:21;97515.49;;;18.82;12.69
77795;BME280;66985;45.778;3.090;2023-03-01T01:54:47;97516.16;;;18.17;12.91
77795;BME280;66985;45.778;3.090;2023-03-01T01:57:14;97511.74;;;17.53;13.26
77795;BME280;66985;45.778;3.090;2023-03-01T01:59:37;97513.92;;;18.09;13.10
77795;BME280;66985;45.778;3.090;2023-03-01T02:02:03;97507.84;;;18.61;12.70
77795;BME280;66985;45.778;3.090;2023-03-01T02:04:26;97510.57;;;18.15;12.90
77795;BME280;66985;45.778;3.090;2023-03-01T02:06:55;97511.43;;;17.57;13.23
77795;BME280;66985;45.778;3.090;2023-03-01T02:09:19;97508.42;;;18.16;12.84
77795;BME280;66985;45.778;3.090;2023-03-01T02:11:43;97503.94;;;17.55;13.26
77795;BME280;66985;45.778;3.090;2023-03-01T02:14:07;97502.84;;;18.39;12.71
77795;BME280;66985;45.778;3.090;2023-03-01T02:16:33;97500.03;;;19.36;12.39
77795;BME280;66985;45.778;3.090;2023-03-01T02:18:58;97498.60;;;18.64;12.50
77795;BME280;66985;45.778;3.090;2023-03-01T02:21:37;97498.89;;;18.10;12.84
77795;BME280;66985;45.778;3.090;2023-03-01T02:23:49;97495.67;;;18.05;12.88
77795;BME280;66985;45.778;3.090;2023-03-01T02:26:18;97492.02;;;18.56;12.66
77795;BME280;66985;45.778;3.090;2023-03-01T02:28:40;97485.44;;;18.92;12.53
77795;BME280;66985;45.778;3.090;2023-03-01T02:31:07;97478.83;;;18.47;12.71
77795;BME280;66985;45.778;3.090;2023-03-01T02:33:31;97474.07;;;18.09;12.79
77795;BME280;66985;45.778;3.090;2023-03-01T02:35:56;97470.14;;;18.47;12.62
77795;BME280;66985;45.778;3.090;2023-03-01T02:38:22;97468.47;;;17.82;12.87
77795;BME280;66985;45.778;3.090;2023-03-01T02:40:47;97462.64;;;17.72;12.91
77795;BME280;66985;45.778;3.090;2023-03-01T02:43:12;97459.91;;;18.10;12.74
77795;BME280;66985;45.778;3.090;2023-03-01T02:45:38;97458.22;;;18.49;12.42
77795;BME280;66985;45.778;3.090;2023-03-01T02:48:03;97456.88;;;18.06;12.79
77795;BME280;66985;45.778;3.090;2023-03-01T02:50:57;97452.97;;;18.31;12.71
77795;BME280;66985;45.778;3.090;2023-03-01T02:52:57;97446.95;;;18.19;12.76
77795;BME280;66985;45.778;3.090;2023-03-01T02:55:21;97450.03;;;18.06;12.86
77795;BME280;66985;45.778;3.090;2023-03-01T02:57:46;97446.57;;;17.07;13.31
77795;BME280;66985;45.778;3.090;2023-03-01T03:00:14;97445.02;;;17.43;13.03
77795;BME280;66985;45.778;3.090;2023-03-01T03:02:37;97441.48;;;18.23;12.70
77795;BME280;66985;45.778;3.090;2023-03-01T03:05:06;97442.06;;;18.53;12.53
77795;BME280;66985;45.778;3.090;2023-03-01T03:07:27;97438.63;;;18.46;12.62
77795;BME280;66985;45.778;3.090;2023-03-01T03:09:53;97435.19;;;18.27;12.63
77795;BME280;66985;45.778;3.090;2023-03-01T03:12:18;97437.46;;;18.60;12.54
77795;BME280;66985;45.778;3.090;2023-03-01T03:14:44;97440.17;;;18.88;12.39
77795;BME280;66985;45.778;3.090;2023-03-01T03:17:09;97437.23;;;19.13;12.36
77795;BME280;66985;45.778;3.090;2023-03-01T03:19:34;97437.61;;;18.91;12.41
77795;BME280;66985;45.778;3.090;2023-03-01T03:22:00;97431.90;;;18.92;12.46
77795;BME280;66985;45.778;3.090;2023-03-01T03:24:26;97431.28;;;18.80;12.55
77795;BME280;66985;45.778;3.090;2023-03-01T03:26:51;97431.28;;;18.36;12.75
77795;BME280;66985;45.778;3.090;2023-03-01T03:29:17;97427.00;;;18.61;12.67
77795;BME280;66985;45.778;3.090;2023-03-01T03:31:43;97426.22;;;19.20;12.47
77795;BME280;66985;45.778;3.090;2023-03-01T03:34:08;97423.94;;;18.78;12.58
77795;BME280;66985;45.778;3.090;2023-03-01T03:36:34;97416.26;;;18.93;12.54
77795;BME280;66985;45.778;3.090;2023-03-01T03:38:59;97412.92;;;18.84;12.59
77795;BME280;66985;45.778;3.090;2023-03-01T03:41:24;97412.83;;;19.06;12.56
77795;BME280;66985;45.778;3.090;2023-03-01T03:43:50;97408.03;;;19.23;12.53
77795;BME280;66985;45.778;3.090;2023-03-01T03:46:16;97405.20;;;19.48;12.44
77795;BME280;66985;45.778;3.090;2023-03-01T03:48:43;97405.80;;;20.25;12.24
77795;BME280;66985;45.778;3.090;2023-03-01T03:51:10;97400.88;;;19.53;12.38
77795;BME280;66985;45.778;3.090;2023-03-01T03:53:33;97400.17;;;19.49;12.38
77795;BME280;66985;45.778;3.090;2023-03-01T03:55:58;97398.27;;;19.44;12.45
77795;BME280;66985;45.778;3.090;2023-03-01T03:58:24;97401.28;;;19.40;12.54
77795;BME280;66985;45.778;3.090;2023-03-01T04:00:50;97401.93;;;19.46;12.41
77795;BME280;66985;45.778;3.090;2023-03-01T04:03:15;97400.54;;;19.34;12.47
77795;BME280;66985;45.778;3.090;2023-03-01T04:05:40;97404.89;;;19.81;12.31
77795;BME280;66985;45.778;3.090;2023-03-01T04:08:05;97407.92;;;19.79;12.29
77795;BME280;66985;45.778;3.090;2023-03-01T04:10:33;97406.38;;;20.12;12.14
77795;BME280;66985;45.778;3.090;2023-03-01T04:12:56;97405.62;;;19.75;12.21
77795;BME280;66985;45.778;3.090;2023-03-01T04:15:21;97401.86;;;19.75;12.30
77795;BME280;66985;45.778;3.090;2023-03-01T04:17:47;97401.08;;;19.69;12.28
77795;BME280;66985;45.778;3.090;2023-03-01T04:20:14;97402.29;;;19.39;12.31
77795;BME280;66985;45.778;3.090;2023-03-01T04:22:38;97399.83;;;19.86;12.28
77795;BME280;66985;45.778;3.090;2023-03-01T04:25:03;97394.53;;;20.01;12.21
77795;BME280;66985;45.778;3.090;2023-03-01T04:27:28;97392.29;;;19.33;12.49
77795;BME280;66985;45.778;3.090;2023-03-01T04:29:54;97389.55;;;20.09;12.16
77795;BME280;66985;45.778;3.090;2023-03-01T04:32:19;97386.43;;;19.82;12.21
77795;BME280;66985;45.778;3.090;2023-03-01T04:34:45;97386.38;;;19.88;12.18
77795;BME280;66985;45.778;3.090;2023-03-01T04:37:10;97385.28;;;19.67;12.32
77795;BME280;66985;45.778;3.090;2023-03-01T04:39:36;97384.26;;;20.12;12.18
77795;BME280;66985;45.778;3.090;2023-03-01T04:42:01;97383.35;;;19.52;12.33
77795;BME280;66985;45.778;3.090;2023-03-01T04:44:27;97378.68;;;19.91;12.30
77795;BME280;66985;45.778;3.090;2023-03-01T04:46:52;97377.92;;;19.37;12.43
77795;BME280;66985;45.778;3.090;2023-03-01T04:49:18;97379.50;;;19.96;12.28
77795;BME280;66985;45.778;3.090;2023-03-01T04:51:43;97375.07;;;19.82;12.36
77795;BME280;66985;45.778;3.090;2023-03-01T04:54:09;97376.16;;;19.75;12.26
77795;BME280;66985;45.778;3.090;2023-03-01T04:56:34;97377.05;;;20.06;12.25
77795;BME280;66985;45.778;3.090;2023-03-01T04:59:00;97378.64;;;19.57;12.39
77795;BME280;66985;45.778;3.090;2023-03-01T05:01:26;97379.49;;;19.77;12.27
77795;BME280;66985;45.778;3.090;2023-03-01T05:03:52;97383.02;;;19.42;12.33
77795;BME280;66985;45.778;3.090;2023-03-01T05:06:18;97385.77;;;19.84;12.20
77795;BME280;66985;45.778;3.090;2023-03-01T05:08:43;97384.91;;;19.72;12.25
77795;BME280;66985;45.778;3.090;2023-03-01T05:11:08;97382.68;;;19.76;12.24
77795;BME280;66985;45.778;3.090;2023-03-01T05:13:33;97381.89;;;19.95;12.26
77795;BME280;66985;45.778;3.090;2023-03-01T05:16:00;97382.53;;;19.73;12.24
77795;BME280;66985;45.778;3.090;2023-03-01T05:18:26;97384.79;;;20.16;12.06
77795;BME280;66985;45.778;3.090;2023-03-01T05:20:50;97385.63;;;20.17;12.18
77795;BME280;66985;45.778;3.090;2023-03-01T05:23:16;97388.20;;;19.79;12.25
77795;BME280;66985;45.778;3.090;2023-03-01T05:25:41;97389.52;;;20.32;12.06
77795;BME280;66985;45.778;3.090;2023-03-01T05:28:10;97389.72;;;19.86;12.26
77795;BME280;66985;45.778;3.090;2023-03-01T05:30:32;97388.02;;;20.08;12.19
77795;BME280;66985;45.778;3.090;2023-03-01T05:32:57;97386.26;;;19.86;12.26
77795;BME280;66985;45.778;3.090;2023-03-01T05:35:23;97386.00;;;20.14;12.22
77795;BME280;66985;45.778;3.090;2023-03-01T05:37:49;97387.46;;;19.74;12.30
77795;BME280;66985;45.778;3.090;2023-03-01T05:40:15;97386.47;;;20.17;12.17
77795;BME280;66985;45.778;3.090;2023-03-01T05:42:40;97385.52;;;19.78;12.24
77795;BME280;66985;45.778;3.090;2023-03-01T05:45:05;97388.53;;;19.91;12.33
77795;BME280;66985;45.778;3.090;2023-03-01T05:47:30;97390.34;;;19.74;12.22
77795;BME280;66985;45.778;3.090;2023-03-01T05:49:56;97388.81;;;19.65;12.60
77795;BME280;66985;45.778;3.090;2023-03-01T05:52:21;97387.72;;;20.04;12.56
77795;BME280;66985;45.778;3.090;2023-03-01T05:54:46;97384.93;;;19.98;12.64
77795;BME280;66985;45.778;3.090;2023-03-01T05:57:12;97379.63;;;19.98;12.52
77795;BME280;66985;45.778;3.090;2023-03-01T05:59:39;97378.76;;;20.55;12.25
77795;BME280;66985;45.778;3.090;2023-03-01T06:02:04;97377.91;;;19.68;12.48
77795;BME280;66985;45.778;3.090;2023-03-01T06:04:28;97375.85;;;19.80;12.47
77795;BME280;66985;45.778;3.090;2023-03-01T06:06:55;97373.82;;;20.78;12.08
77795;BME280;66985;45.778;3.090;2023-03-01T06:09:19;97375.44;;;20.22;12.25
77795;BME280;66985;45.778;3.090;2023-03-01T06:11:44;97374.09;;;20.10;12.21
77795;BME280;66985;45.778;3.090;2023-03-01T06:14:10;97373.62;;;20.14;12.30
77795;BME280;66985;45.778;3.090;2023-03-01T06:16:35;97366.87;;;20.32;12.20
77795;BME280;66985;45.778;3.090;2023-03-01T06:19:01;97370.16;;;19.76;12.39
77795;BME280;66985;45.778;3.090;2023-03-01T06:21:26;97370.90;;;20.24;12.30
77795;BME280;66985;45.778;3.090;2023-03-01T06:23:53;97370.57;;;20.27;12.15
77795;BME280;66985;45.778;3.090;2023-03-01T06:26:17;97373.06;;;20.23;12.18
77795;BME280;66985;45.778;3.090;2023-03-01T06:28:44;97374.32;;;20.01;12.23
77795;BME280;66985;45.778;3.090;2023-03-01T06:31:08;97374.10;;;20.07;12.11
77795;BME280;66985;45.778;3.090;2023-03-01T06:33:34;97369.33;;;20.27;12.17
77795;BME280;66985;45.778;3.090;2023-03-01T06:35:59;97368.06;;;20.05;12.19
77795;BME280;66985;45.778;3.090;2023-03-01T06:38:26;97369.88;;;20.04;12.30
77795;BME280;66985;45.778;3.090;2023-03-01T06:40:52;97366.23;;;20.02;12.31
77795;BME280;66985;45.778;3.090;2023-03-01T06:43:17;97363.53;;;20.14;12.18
77795;BME280;66985;45.778;3.090;2023-03-01T06:45:41;97366.66;;;19.85;12.42
77795;BME280;66985;45.778;3.090;2023-03-01T06:48:07;97365.05;;;19.84;12.48
77795;BME280;66985;45.778;3.090;2023-03-01T06:50:32;97364.10;;;19.52;12.61
77795;BME280;66985;45.778;3.090;2023-03-01T06:52:58;97370.61;;;19.72;12.59
77795;BME280;66985;45.778;3.090;2023-03-01T06:55:24;97370.37;;;19.55;12.58
77795;BME280;66985;45.778;3.090;2023-03-01T06:57:54;97369.35;;;20.34;12.22
77795;BME280;66985;45.778;3.090;2023-03-01T07:00:16;97373.21;;;19.42;12.71
77795;BME280;66985;45.778;3.090;2023-03-01T07:02:40;97368.49;;;19.21;12.81
77795;BME280;66985;45.778;3.090;2023-03-01T07:05:06;97365.29;;;19.20;12.70
77795;BME280;66985;45.778;3.090;2023-03-01T07:07:30;97362.57;;;19.60;12.52
77795;BME280;66985;45.778;3.090;2023-03-01T07:09:56;97361.32;;;20.22;12.33
77795;BME280;66985;45.778;3.090;2023-03-01T07:12:21;97361.42;;;20.65;11.80
77795;BME280;66985;45.778;3.090;2023-03-01T07:14:47;97363.16;;;18.95;12.26
77795;BME280;66985;45.778;3.090;2023-03-01T07:17:12;97360.11;;;18.13;12.30
77795;BME280;66985;45.778;3.090;2023-03-01T07:19:38;97363.06;;;18.10;11.58
77795;BME280;66985;45.778;3.090;2023-03-01T07:22:04;97365.57;;;18.17;10.99
77795;BME280;66985;45.778;3.090;2023-03-01T07:24:30;97364.59;;;16.05;11.25
77795;BME280;66985;45.778;3.090;2023-03-01T07:26:54;97366.93;;;11.01;13.25
77795;BME280;66985;45.778;3.090;2023-03-01T07:29:19;97365.93;;;9.54;13.52
77795;BME280;66985;45.778;3.090;2023-03-01T07:31:44;97368.74;;;9.27;14.57
77795;BME280;66985;45.778;3.090;2023-03-01T07:34:11;97366.76;;;13.83;12.50
77795;BME280;66985;45.778;3.090;2023-03-01T07:36:35;97360.18;;;15.75;11.47
77795;BME280;66985;45.778;3.090;2023-03-01T07:39:01;97358.00;;;17.68;10.74
77795;BME280;66985;45.778;3.090;2023-03-01T07:41:27;97360.48;;;18.46;10.27
77795;BME280;66985;45.778;3.090;2023-03-01T07:43:52;97357.92;;;18.13;10.31
77795;BME280;66985;45.778;3.090;2023-03-01T07:46:17;97355.47;;;18.85;10.30
77795;BME280;66985;45.778;3.090;2023-03-01T07:48:42;97350.21;;;19.10;10.25
77795;BME280;66985;45.778;3.090;2023-03-01T07:51:08;97347.01;;;19.21;10.43
77795;BME280;66985;45.778;3.090;2023-03-01T07:53:34;97348.08;;;19.29;10.30
77795;BME280;66985;45.778;3.090;2023-03-01T07:56:02;97353.17;;;18.97;10.97
77795;BME280;66985;45.778;3.090;2023-03-01T07:58:23;97347.63;;;18.70;11.23
77795;BME280;66985;45.778;3.090;2023-03-01T08:00:49;97348.84;;;18.57;11.09
77795;BME280;66985;45.778;3.090;2023-03-01T08:03:15;97347.72;;;18.84;11.13
77795;BME280;66985;45.778;3.090;2023-03-01T08:05:41;97345.82;;;18.82;11.15
77795;BME280;66985;45.778;3.090;2023-03-01T08:08:06;97343.67;;;19.16;10.99
77795;BME280;66985;45.778;3.090;2023-03-01T08:10:31;97340.74;;;19.72;10.88
77795;BME280;66985;45.778;3.090;2023-03-01T08:12:57;97339.97;;;19.44;10.93
77795;BME280;66985;45.778;3.090;2023-03-01T08:15:22;97342.53;;;19.47;11.12
77795;BME280;66985;45.778;3.090;2023-03-01T08:17:49;97341.62;;;19.51;10.94
77795;BME280;66985;45.778;3.090;2023-03-01T08:20:13;97337.55;;;19.21;11.24
77795;BME280;66985;45.778;3.090;2023-03-01T08:22:38;97338.29;;;18.89;11.32
77795;BME280;66985;45.778;3.090;2023-03-01T08:25:05;97338.18;;;19.23;11.24
77795;BME280;66985;45.778;3.090;2023-03-01T08:27:29;97336.95;;;19.02;11.39
77795;BME280;66985;45.778;3.090;2023-03-01T08:29:54;97336.05;;;18.71;11.53
77795;BME280;66985;45.778;3.090;2023-03-01T08:32:20;97338.74;;;18.25;11.70
77795;BME280;66985;45.778;3.090;2023-03-01T08:34:46;97335.61;;;18.51;11.68
77795;BME280;66985;45.778;3.090;2023-03-01T08:37:10;97329.37;;;19.06;11.44
77795;BME280;66985;45.778;3.090;2023-03-01T08:39:37;97328.71;;;19.21;11.41
77795;BME280;66985;45.778;3.090;2023-03-01T08:42:02;97331.93;;;18.67;11.69
77795;BME280;66985;45.778;3.090;2023-03-01T08:44:28;97330.53;;;19.25;11.45
77795;BME280;66985;45.778;3.090;2023-03-01T08:46:53;97332.69;;;18.93;11.56
77795;BME280;66985;45.778;3.090;2023-03-01T08:49:19;97330.01;;;19.00;11.56
77795;BME280;66985;45.778;3.090;2023-03-01T08:51:44;97331.01;;;19.47;11.41
77795;BME280;66985;45.778;3.090;2023-03-01T08:54:12;97327.63;;;18.86;11.64
77795;BME280;66985;45.778;3.090;2023-03-01T08:56:35;97323.59;;;18.80;11.63
77795;BME280;66985;45.778;3.090;2023-03-01T08:59:01;97321.26;;;18.93;11.63
77795;BME280;66985;45.778;3.090;2023-03-01T09:01:26;97319.81;;;18.54;11.88
77795;BME280;66985;45.778;3.090;2023-03-01T09:03:52;97317.71;;;19.32;11.56
77795;BME280;66985;45.778;3.090;2023-03-01T09:06:17;97314.25;;;19.19;11.68
77795;BME280;66985;45.778;3.090;2023-03-01T09:08:49;97312.75;;;18.86;11.74
77795;BME280;66985;45.778;3.090;2023-03-01T09:11:14;97310.27;;;18.74;11.82
77795;BME280;66985;45.778;3.090;2023-03-01T09:13:33;97310.93;;;18.77;11.75
77795;BME280;66985;45.778;3.090;2023-03-01T09:16:01;97311.59;;;18.87;11.75
77795;BME280;66985;45.778;3.090;2023-03-01T09:18:24;97314.23;;;18.93;11.78
77795;BME280;66985;45.778;3.090;2023-03-01T09:20:50;97313.19;;;19.35;11.71
77795;BME280;66985;45.778;3.090;2023-03-01T09:23:15;97305.84;;;19.31;11.71
77795;BME280;66985;45.778;3.090;2023-03-01T09:25:41;97301.43;;;18.84;11.88
77795;BME280;66985;45.778;3.090;2023-03-01T09:28:06;97301.72;;;18.97;11.79
77795;BME280;66985;45.778;3.090;2023-03-01T09:30:32;97299.22;;;19.27;11.69
77795;BME280;66985;45.778;3.090;2023-03-01T09:32:57;97296.24;;;19.28;11.64
77795;BME280;66985;45.778;3.090;2023-03-01T09:35:23;97295.86;;;18.31;12.19
77795;BME280;66985;45.778;3.090;2023-03-01T09:37:49;97293.03;;;18.84;12.08
77795;BME280;66985;45.778;3.090;2023-03-01T09:40:17;97287.30;;;18.71;12.31
77795;BME280;66985;45.778;3.090;2023-03-01T09:42:47;97287.58;;;18.99;12.00
77795;BME280;66985;45.778;3.090;2023-03-01T09:45:06;97286.00;;;18.20;12.50
77795;BME280;66985;45.778;3.090;2023-03-01T09:47:32;97284.12;;;18.27;12.45
77795;BME280;66985;45.778;3.090;2023-03-01T09:50:02;97280.42;;;18.74;12.33
77795;BME280;66985;45.778;3.090;2023-03-01T09:52:25;97277.66;;;18.87;12.41
77795;BME280;66985;45.778;3.090;2023-03-01T09:54:48;97276.99;;;18.26;12.60
77795;BME280;66985;45.778;3.090;2023-03-01T09:57:19;97271.41;;;19.30;12.27
77795;BME280;66985;45.778;3.090;2023-03-01T09:59:47;97269.28;;;18.42;12.87
77795;BME280;66985;45.778;3.090;2023-03-01T10:02:21;97269.45;;;18.67;12.97
77795;BME280;66985;45.778;3.090;2023-03-01T10:04:39;97265.92;;;18.76;12.81
77795;BME280;66985;45.778;3.090;2023-03-01T10:07:05;97265.72;;;18.89;12.63
77795;BME280;66985;45.778;3.090;2023-03-01T10:09:20;97262.44;;;18.86;12.68
77795;BME280;66985;45.778;3.090;2023-03-01T10:11:47;97263.01;;;18.57;12.79
77795;BME280;66985;45.778;3.090;2023-03-01T10:14:22;97260.63;;;18.52;13.13
77795;BME280;66985;45.778;3.090;2023-03-01T10:16:41;97260.31;;;18.67;13.39
77795;BME280;66985;45.778;3.090;2023-03-01T10:19:04;97259.77;;;19.09;13.17
77795;BME280;66985;45.778;3.090;2023-03-01T10:21:28;97259.68;;;18.61;13.32
77795;BME280;66985;45.778;3.090;2023-03-01T10:23:53;97255.98;;;18.30;13.42
77795;BME280;66985;45.778;3.090;2023-03-01T10:26:31;97251.45;;;19.31;13.09
77795;BME280;66985;45.778;3.090;2023-03-01T10:28:53;97253.05;;;19.24;13.13
77795;BME280;66985;45.778;3.090;2023-03-01T10:31:12;97252.83;;;18.42;13.61
77795;BME280;66985;45.778;3.090;2023-03-01T10:33:37;97252.78;;;19.20;13.25
77795;BME280;66985;45.778;3.090;2023-03-01T10:36:00;97252.23;;;18.73;13.34
77795;BME280;66985;45.778;3.090;2023-03-01T10:38:25;97250.84;;;18.66;13.43
77795;BME280;66985;45.778;3.090;2023-03-01T10:40:53;97246.20;;;18.37;13.45
77795;BME280;66985;45.778;3.090;2023-03-01T10:43:16;97244.11;;;18.93;13.44
77795;BME280;66985;45.778;3.090;2023-03-01T10:45:42;97242.95;;;18.94;13.43
77795;BME280;66985;45.778;3.090;2023-03-01T10:48:12;97237.96;;;19.26;13.41
77795;BME280;66985;45.778;3.090;2023-03-01T10:50:32;97236.31;;;18.49;13.47
77795;BME280;66985;45.778;3.090;2023-03-01T10:53:00;97232.41;;;18.47;13.59
77795;BME280;66985;45.778;3.090;2023-03-01T10:55:26;97229.52;;;18.52;13.63
77795;BME280;66985;45.778;3.090;2023-03-01T10:57:48;97227.39;;;18.88;13.58
77795;BME280;66985;45.778;3.090;2023-03-01T11:00:20;97231.37;;;19.06;13.54
77795;BME280;66985;45.778;3.090;2023-03-01T11:02:39;97230.82;;;19.08;13.40
77795;BME280;66985;45.778;3.090;2023-03-01T11:05:17;97228.74;;;18.53;13.87
77795;BME280;66985;45.778;3.090;2023-03-01T11:07:30;97228.78;;;18.68;13.68
77795;BME280;66985;45.778;3.090;2023-03-01T11:09:56;97229.76;;;18.75;13.72
77795;BME280;66985;45.778;3.090;2023-03-01T11:12:22;97227.03;;;18.73;13.74
77795;BME280;66985;45.778;3.090;2023-03-01T11:14:48;97224.47;;;18.65;13.67
77795;BME280;66985;45.778;3.090;2023-03-01T11:17:15;97224.96;;;18.58;13.76
77795;BME280;66985;45.778;3.090;2023-03-01T11:19:38;97223.44;;;19.08;13.58
77795;BME280;66985;45.778;3.090;2023-03-01T11:22:07;97223.75;;;18.59;13.83
77795;BME280;66985;45.778;3.090;2023-03-01T11:24:34;97217.10;;;19.42;13.44
77795;BME280;66985;45.778;3.090;2023-03-01T11:26:55;97215.07;;;18.32;13.93
77795;BME280;66985;45.778;3.090;2023-03-01T11:29:27;97212.02;;;18.65;13.70
77795;BME280;66985;45.778;3.090;2023-03-01T11:31:46;97211.39;;;19.02;13.67
77795;BME280;66985;45.778;3.090;2023-03-01T11:34:12;97208.85;;;18.49;13.98
77795;BME280;66985;45.778;3.090;2023-03-01T11:36:41;97206.16;;;18.55;14.07
77795;BME280;66985;45.778;3.090;2023-03-01T11:39:04;97206.89;;;18.80;13.93
77795;BME280;66985;45.778;3.090;2023-03-01T11:41:31;97203.57;;;18.41;14.19
77795;BME280;66985;45.778;3.090;2023-03-01T11:43:55;97197.54;;;19.26;13.79
77795;BME280;66985;45.778;3.090;2023-03-01T11:47:03;97197.48;;;19.11;13.95
77795;BME280;66985;45.778;3.090;2023-03-01T11:48:51;97193.43;;;18.72;14.32
77795;BME280;66985;45.778;3.090;2023-03-01T11:51:18;97188.82;;;18.72;14.13
77795;BME280;66985;45.778;3.090;2023-03-01T11:53:49;97183.06;;;19.79;13.66
77795;BME280;66985;45.778;3.090;2023-03-01T11:56:08;97178.17;;;18.84;14.15
77795;BME280;66985;45.778;3.090;2023-03-01T11:58:36;97172.84;;;19.04;14.08
77795;BME280;66985;45.778;3.090;2023-03-01T12:01:03;97175.85;;;18.92;14.17
77795;BME280;66985;45.778;3.090;2023-03-01T12:03:25;97168.75;;;19.35;14.16
77795;BME280;66985;45.778;3.090;2023-03-01T12:05:54;97171.21;;;18.55;14.54
77795;BME280;66985;45.778;3.090;2023-03-01T12:08:12;97171.87;;;18.39;14.66
77795;BME280;66985;45.778;3.090;2023-03-01T12:10:36;97168.11;;;18.48;14.32
77795;BME280;66985;45.778;3.090;2023-03-01T12:13:18;97164.47;;;17.59;12.88
77795;BME280;66985;45.778;3.090;2023-03-01T12:15:33;97158.04;;;16.78;13.41
77795;BME280;66985;45.778;3.090;2023-03-01T12:18:02;97153.62;;;17.35;13.19
77795;BME280;66985;45.778;3.090;2023-03-01T12:20:20;97150.93;;;17.82;12.84
77795;BME280;66985;45.778;3.090;2023-03-01T12:22:48;97146.79;;;18.34;12.46
77795;BME280;66985;45.778;3.090;2023-03-01T12:25:15;97139.14;;;18.77;12.30
77795;BME280;66985;45.778;3.090;2023-03-01T12:27:43;97137.93;;;18.87;12.37
77795;BME280;66985;45.778;3.090;2023-03-01T12:30:00;97140.93;;;18.34;12.52
77795;BME280;66985;45.778;3.090;2023-03-01T12:32:30;97133.75;;;18.94;12.35
77795;BME280;66985;45.778;3.090;2023-03-01T12:35:05;97135.71;;;18.10;12.65
77795;BME280;66985;45.778;3.090;2023-03-01T12:37:21;97130.25;;;18.68;12.47
77795;BME280;66985;45.778;3.090;2023-03-01T12:39:45;97121.48;;;18.85;12.53
77795;BME280;66985;45.778;3.090;2023-03-01T12:42:08;97123.51;;;18.60;12.75
77795;BME280;66985;45.778;3.090;2023-03-01T12:44:39;97114.83;;;18.76;12.82
77795;BME280;66985;45.778;3.090;2023-03-01T12:47:07;97109.27;;;19.62;12.49
77795;BME280;66985;45.778;3.090;2023-03-01T12:49:23;97105.04;;;19.27;12.70